Historique des stations

Station météo de Graçay

Altitude de la station : 130 m







Données météorologiques pour le 10/04/2021
Date
Heure
Températures Humidité Point de rosée Vitesse
du vent
Direction Rafales Windchill Pression Pluviométrie
Cumul
Date
Heure
Températures Humidité Point de rosée Vitesse
du vent
Direction Rafales Windchill Pression Pluviométrie
Cumul
10/04/2021 20:4511.5 °C93 %10.6 °C-SSE23 km/h11.7 1009 hPa2.4 mm
10/04/2021 20:3011.6 °C93 %10.6 °C-S23 km/h11.7 1009 hPa2.4 mm
10/04/2021 20:1511.7 °C92 %10.6 °C-SSE23 km/h11.7 1009 hPa2.4 mm
10/04/2021 20:0011.8 °C92 %10.6 °C-SE23 km/h11.7 1009 hPa2.4 mm
10/04/2021 19:4512.0 °C91 %10.6 °C-SE23 km/h12.2 1009 hPa2.2 mm
10/04/2021 19:3012.2 °C90 %10.6 °C-SSE23 km/h12.2 1009 hPa2.2 mm
10/04/2021 19:1512.4 °C90 %11.1 °C2 km/hSE23 km/h12.2 1009 hPa2.2 mm
10/04/2021 19:0012.6 °C92 %11.7 °C2 km/hSSE23 km/h12.8 1009 hPa2.2 mm
10/04/2021 18:4512.7 °C92 %11.7 °C-SSE23 km/h12.8 1009 hPa2.2 mm
10/04/2021 18:3012.7 °C92 %11.7 °C-SSE23 km/h12.8 1009 hPa2.2 mm
10/04/2021 18:1512.5 °C90 %11.1 °C2 km/hSSE23 km/h12.8 1009 hPa2 mm
10/04/2021 18:0012.6 °C90 %11.1 °C2 km/hSSE23 km/h12.8 1009 hPa2 mm
10/04/2021 17:4412.6 °C90 %11.1 °C-SSE23 km/h12.8 1009 hPa2 mm
10/04/2021 17:2912.3 °C91 %11.1 °C2 km/hS23 km/h12.2 1009 hPa2 mm
10/04/2021 17:1412.2 °C91 %11.1 °C3 km/hSSE23 km/h12.2 1010 hPa2 mm
10/04/2021 16:5912.0 °C91 %10.6 °C2 km/hSSE23 km/h12.2 1010 hPa1.8 mm
10/04/2021 16:4412.2 °C91 %11.1 °C3 km/hSSO23 km/h12.2 1010 hPa1.8 mm
10/04/2021 16:2912.3 °C91 %11.1 °C3 km/hSSO23 km/h12.2 1010 hPa1.8 mm
10/04/2021 16:1412.3 °C91 %11.1 °C5 km/hS23 km/h12.2 1010 hPa1.8 mm
10/04/2021 15:5911.9 °C90 %10.6 °C3 km/hS23 km/h12.2 1011 hPa1.6 mm
10/04/2021 15:4412.1 °C88 %10.0 °C5 km/hSO23 km/h12.2 1011 hPa0.8 mm
10/04/2021 15:2912.2 °C86 %10.0 °C3 km/hOSO23 km/h12.2 1011 hPa0.4 mm
10/04/2021 15:1412.6 °C82 %9.4 °C8 km/hOSO23 km/h12.2 1011 hPa-
10/04/2021 14:5913.6 °C77 %9.4 °C5 km/hSO23 km/h13.3 1011 hPa-
10/04/2021 14:4414.2 °C72 %9.4 °C8 km/hSSE23 km/h14.4 1011 hPa-
10/04/2021 14:2914.7 °C69 %8.9 °C16 km/hSO23 km/h12.8 1011 hPa-
10/04/2021 14:1414.9 °C70 %9.4 °C3 km/hSO21 km/h15.0 1011 hPa-
10/04/2021 14:0014.5 °C71 %9.4 °C5 km/hSSO21 km/h14.4 1011 hPa-
10/04/2021 13:4514.4 °C71 %9.4 °C3 km/hS21 km/h14.4 1011 hPa-
10/04/2021 13:3014.6 °C69 %8.9 °C11 km/hSSO21 km/h13.3 1011 hPa-
10/04/2021 13:1514.4 °C71 %9.4 °C6 km/hSSO21 km/h14.4 1011 hPa-
10/04/2021 13:0014.2 °C73 %9.4 °C6 km/hSO21 km/h14.4 1011 hPa-
10/04/2021 12:4514.3 °C72 %9.4 °C2 km/hSSE21 km/h14.4 1012 hPa-
10/04/2021 12:3013.9 °C74 %9.4 °C-SSO21 km/h13.9 1012 hPa-
10/04/2021 12:1513.3 °C75 %8.9 °C2 km/hS21 km/h13.3 1012 hPa-
10/04/2021 12:0012.9 °C74 %8.3 °C2 km/hSSE21 km/h12.8 1012 hPa-
10/04/2021 11:4513.0 °C74 %8.3 °C3 km/hSSE21 km/h12.8 1012 hPa-
10/04/2021 11:3013.2 °C74 %8.9 °C6 km/hSSE21 km/h13.3 1012 hPa-
10/04/2021 11:1513.1 °C75 %8.9 °C6 km/hSSE21 km/h13.3 1012 hPa-
10/04/2021 11:0012.3 °C77 %8.3 °C5 km/hSE21 km/h12.2 1012 hPa-
10/04/2021 10:4511.9 °C80 %8.3 °C3 km/hSE21 km/h11.7 1012 hPa-
10/04/2021 10:3011.4 °C80 %8.3 °C3 km/hSE21 km/h11.7 1012 hPa-
10/04/2021 10:1511.3 °C79 %7.8 °C2 km/hSE21 km/h11.1 1012 hPa-
10/04/2021 10:0011.3 °C80 %7.8 °C3 km/hSSE21 km/h11.1 1012 hPa-
10/04/2021 09:4411.1 °C80 %7.8 °C5 km/hSSE21 km/h11.1 1012 hPa-
10/04/2021 09:2910.8 °C81 %7.8 °C2 km/hSE21 km/h11.1 1012 hPa-
10/04/2021 09:1410.6 °C81 %7.2 °C-SE21 km/h10.6 1012 hPa-
10/04/2021 08:5910.6 °C81 %7.2 °C-S21 km/h10.6 1012 hPa-
10/04/2021 08:4410.4 °C81 %7.2 °C-SE21 km/h10.6 1013 hPa-
10/04/2021 08:2910.2 °C82 %7.2 °C-SE21 km/h10.0 1013 hPa-
10/04/2021 08:1410.1 °C82 %7.2 °C6 km/hSSE21 km/h8.9 1013 hPa-
10/04/2021 07:599.9 °C82 %7.2 °C-SSE21 km/h10.0 1013 hPa-
10/04/2021 07:4410.1 °C82 %7.2 °C-SE21 km/h10.0 1013 hPa-
10/04/2021 07:2910.2 °C81 %7.2 °C-SE21 km/h10.0 1013 hPa-
10/04/2021 07:1410.2 °C80 %6.7 °C-SSE21 km/h10.0 1013 hPa-
10/04/2021 06:5910.3 °C80 %7.2 °C2 km/hSSE21 km/h10.6 1013 hPa-
10/04/2021 06:4410.3 °C80 %7.2 °C3 km/hSE21 km/h10.6 1013 hPa-
10/04/2021 06:3010.4 °C79 %6.7 °C-SSE21 km/h10.6 1013 hPa-
10/04/2021 06:1510.4 °C79 %7.2 °C-SSE21 km/h10.6 1013 hPa-
10/04/2021 06:0010.6 °C78 %6.7 °C3 km/hSE21 km/h10.6 1013 hPa-
10/04/2021 05:4510.6 °C78 %6.7 °C-S21 km/h10.6 1013 hPa-
10/04/2021 05:3010.6 °C77 %6.7 °C-SSE21 km/h10.6 1013 hPa-
10/04/2021 05:1510.7 °C77 %6.7 °C3 km/hSE21 km/h10.6 1013 hPa-
10/04/2021 05:0010.9 °C76 %6.7 °C-SSE21 km/h11.1 1013 hPa-
10/04/2021 04:4511.2 °C74 %6.7 °C-SSE21 km/h11.1 1013 hPa-
10/04/2021 04:3011.4 °C73 %6.7 °C-SSE21 km/h11.7 1013 hPa-
10/04/2021 04:1511.6 °C72 %6.7 °C-S21 km/h11.7 1013 hPa-
10/04/2021 04:0011.6 °C72 %6.7 °C8 km/hSE21 km/h11.1 1013 hPa-
10/04/2021 03:4511.4 °C73 %6.7 °C6 km/hSSE21 km/h11.7 1014 hPa-
10/04/2021 03:3011.3 °C72 %6.7 °C-SSE21 km/h11.1 1014 hPa-
10/04/2021 03:1511.3 °C72 %6.7 °C-SE21 km/h11.1 1014 hPa-
10/04/2021 03:0011.5 °C71 %6.7 °C5 km/hSSE21 km/h11.7 1014 hPa-
10/04/2021 02:4511.8 °C70 %6.7 °C-SSO21 km/h11.7 1014 hPa-
10/04/2021 02:3012.3 °C68 %6.7 °C-SSE21 km/h12.2 1014 hPa-
10/04/2021 02:1512.6 °C67 %6.7 °C8 km/hS21 km/h12.2 1014 hPa-
10/04/2021 02:0012.6 °C68 %6.7 °C6 km/hE21 km/h12.8 1014 hPa-
10/04/2021 01:4512.6 °C69 %7.2 °C5 km/hSSO21 km/h12.8 1014 hPa-
10/04/2021 01:3012.7 °C71 %7.8 °C5 km/hSE21 km/h12.8 1014 hPa-
10/04/2021 01:1313.3 °C70 %7.8 °C5 km/hSSO21 km/h13.3 1014 hPa-
10/04/2021 00:5913.5 °C69 %7.8 °C-S21 km/h13.3 1014 hPa-
10/04/2021 00:4413.6 °C69 %7.8 °C6 km/hESE21 km/h13.9 1014 hPa-
10/04/2021 00:2913.7 °C70 %8.3 °C3 km/hS18 km/h13.9 1014 hPa-
10/04/2021 00:1413.8 °C70 %8.3 °C6 km/hOSO14 km/h13.9 1014 hPa-


Minima :

Température : 9.9 °C
Humidité : 67 %
Point de rosée : 6.7 °C
Vent moyen : 2 km/h
Windchill : 8.9
Pression atm. : 1009 hPa
Maxima :

Température : 14.9 °C
Humidité : 93 %
Point de rosée : 11.7 °C
Vent moyen : 16 km/h
Windchill : 15.0
Pression atm. : 1014 hPa
Rafales max : 23 km/h
Cumul de pluie sur 24H : 2.4 mm

Graçay est une commune du département Cher (18).
La station météorologique du réseau de l'association la plus proche de Graçay est celle de Luçay-le-Libre



Icône Facebook Association Météo Centre Icône Twitter Association Météo Centre Icône Chaîne Youtube Association Météo Centre Icône contact Association Météo Centre Icône Insta Association Météo Centre